Time;durP1;ratioP1;P1;durP2;ratioP2;P2;SDS_P1;SDS_P2;PMS_P1;PMS_P2;Temp;Humidity;BMP_temperature;BMP_pressure;BME280_temperature;BME280_humidity;BME280_pressure;Samples;Min_cycle;Max_cycle;Signal;HPM_P1;HPM_P2
2023/06/13 00:01:48;;;;;;;5.32;3.92;;;;;;;;;;5074697;28;20181;-77
2023/06/13 00:04:13;;;;;;;6.25;4.35;;;;;;;;;;5074859;28;20197;-77
2023/06/13 00:06:38;;;;;;;4.80;3.35;;;;;;;;;;5073199;28;20180;-77
2023/06/13 00:09:03;;;;;;;8.10;4.15;;;;;;;;;;5058918;28;20222;-77
2023/06/13 00:11:29;;;;;;;4.38;3.70;;;;;;;;;;5069962;28;20257;-77
2023/06/13 00:16:26;;;;;;;5.85;3.75;;;;;;;;;;5045821;28;20694;-71
2023/06/13 00:18:53;;;;;;;4.82;3.80;;;;;;;;;;5044819;28;20254;-71
2023/06/13 00:21:18;;;;;;;5.40;4.10;;;;;;;;;;5046585;28;20581;-71
2023/06/13 00:23:44;;;;;;;6.40;4.20;;;;;;;;;;5046533;28;20203;-71
2023/06/13 00:26:09;;;;;;;5.10;3.70;;;;;;;;;;5034906;28;20194;-71
2023/06/13 00:28:34;;;;;;;6.80;4.25;;;;;;;;;;5050451;28;20273;-71
2023/06/13 00:30:59;;;;;;;10.82;3.80;;;;;;;;;;5043516;28;20192;-71
2023/06/13 00:33:31;;;;;;;3.95;3.55;;;;;;;;;;5053392;28;20216;-71
2023/06/13 00:35:56;;;;;;;4.57;3.92;;;;;;;;;;5051588;28;20686;-70
2023/06/13 00:38:23;;;;;;;5.35;3.78;;;;;;;;;;5045527;28;20455;-71
2023/06/13 00:40:49;;;;;;;4.95;3.22;;;;;;;;;;5052883;28;20600;-71
2023/06/13 00:43:14;;;;;;;5.28;3.88;;;;;;;;;;5049178;28;20169;-71
2023/06/13 00:45:40;;;;;;;4.32;3.88;;;;;;;;;;5046220;28;20189;-71
2023/06/13 00:48:06;;;;;;;4.13;3.72;;;;;;;;;;5051405;28;20537;-71
2023/06/13 00:50:36;;;;;;;5.05;3.50;;;;;;;;;;5052327;28;20185;-71
2023/06/13 00:53:03;;;;;;;5.15;3.53;;;;;;;;;;5046484;28;20186;-71
2023/06/13 00:55:28;;;;;;;6.40;3.40;;;;;;;;;;5045149;28;20193;-71
2023/06/13 00:57:55;;;;;;;5.15;3.67;;;;;;;;;;5051068;28;20197;-71
2023/06/13 01:00:22;;;;;;;6.35;3.47;;;;;;;;;;5041151;28;20232;-71
2023/06/13 01:02:47;;;;;;;8.43;3.65;;;;;;;;;;5049918;28;20181;-71
2023/06/13 01:05:13;;;;;;;7.05;3.65;;;;;;;;;;5056347;28;20208;-71
2023/06/13 01:07:40;;;;;;;5.53;3.35;;;;;;;;;;5045447;28;20185;-72
2023/06/13 01:10:06;;;;;;;4.40;3.50;;;;;;;;;;5051284;28;20178;-71
2023/06/13 01:12:35;;;;;;;4.22;3.78;;;;;;;;;;5050146;28;20797;-71
2023/06/13 01:15:05;;;;;;;6.65;3.75;;;;;;;;;;5050732;28;20228;-71
2023/06/13 01:17:34;;;;;;;8.82;4.93;;;;;;;;;;5045664;28;20209;-72
2023/06/13 01:20:03;;;;;;;4.80;3.38;;;;;;;;;;5049883;28;20177;-71
2023/06/13 01:22:43;;;;;;;4.75;3.47;;;;;;;;;;5043429;28;20205;-71
2023/06/13 01:25:08;;;;;;;5.93;3.97;;;;;;;;;;5044699;28;20204;-71
2023/06/13 01:27:35;;;;;;;4.68;3.42;;;;;;;;;;5048886;28;20272;-71
2023/06/13 01:30:01;;;;;;;6.45;3.85;;;;;;;;;;5046036;28;20186;-71
2023/06/13 01:32:26;;;;;;;4.25;3.53;;;;;;;;;;5047333;28;20651;-71
2023/06/13 01:34:52;;;;;;;6.28;3.60;;;;;;;;;;5047234;28;20213;-71
2023/06/13 01:37:17;;;;;;;6.28;3.75;;;;;;;;;;5047291;28;20215;-71
2023/06/13 01:39:43;;;;;;;7.07;4.05;;;;;;;;;;5049872;28;20608;-71
2023/06/13 01:42:08;;;;;;;4.60;3.47;;;;;;;;;;5048651;28;20173;-71
2023/06/13 01:44:33;;;;;;;5.88;3.60;;;;;;;;;;5050203;28;20239;-71
2023/06/13 01:47:25;;;;;;;5.20;3.17;;;;;;;;;;5051918;28;20206;-71
2023/06/13 01:49:53;;;;;;;5.93;4.43;;;;;;;;;;5034086;28;20189;-71
2023/06/13 01:52:26;;;;;;;5.10;3.78;;;;;;;;;;5051801;28;20177;-71
2023/06/13 01:54:53;;;;;;;6.15;3.17;;;;;;;;;;5044241;28;20604;-71
2023/06/13 01:57:23;;;;;;;6.85;3.80;;;;;;;;;;5052167;28;20553;-71
2023/06/13 01:59:52;;;;;;;4.57;4.13;;;;;;;;;;5058775;28;20554;-71
2023/06/13 02:02:17;;;;;;;4.90;3.53;;;;;;;;;;5038875;28;20647;-71
2023/06/13 02:04:43;;;;;;;5.78;3.45;;;;;;;;;;5047526;28;20197;-71
2023/06/13 02:07:09;;;;;;;6.32;4.00;;;;;;;;;;5048499;28;20174;-71
2023/06/13 02:09:34;;;;;;;6.75;3.53;;;;;;;;;;5039547;28;20178;-71
2023/06/13 02:11:59;;;;;;;4.85;3.95;;;;;;;;;;5044887;28;20660;-71
2023/06/13 02:14:25;;;;;;;16.40;3.50;;;;;;;;;;5045052;28;20209;-71
2023/06/13 02:16:51;;;;;;;4.75;3.20;;;;;;;;;;5049385;28;20181;-71
2023/06/13 02:19:16;;;;;;;5.68;3.60;;;;;;;;;;5043993;28;20177;-72
2023/06/13 02:21:48;;;;;;;7.40;4.10;;;;;;;;;;5041013;28;20241;-71
2023/06/13 02:24:14;;;;;;;5.78;3.55;;;;;;;;;;5041803;28;20206;-71
2023/06/13 02:26:40;;;;;;;4.30;3.63;;;;;;;;;;5044329;28;20924;-71
2023/06/13 02:29:07;;;;;;;6.00;3.60;;;;;;;;;;5055292;28;20177;-71
2023/06/13 02:31:35;;;;;;;6.22;4.18;;;;;;;;;;5048754;28;20247;-71
2023/06/13 02:34:01;;;;;;;10.25;3.97;;;;;;;;;;5046030;28;20745;-71
2023/06/13 02:36:26;;;;;;;6.57;4.57;;;;;;;;;;5045619;28;20170;-71
2023/06/13 02:38:51;;;;;;;5.25;3.60;;;;;;;;;;5046250;28;20207;-71
2023/06/13 02:41:16;;;;;;;5.78;3.38;;;;;;;;;;5049366;28;20181;-71
2023/06/13 02:43:41;;;;;;;4.20;3.47;;;;;;;;;;5042369;28;20602;-71
2023/06/13 02:46:07;;;;;;;5.28;4.00;;;;;;;;;;5048426;28;20236;-71
2023/06/13 02:48:32;;;;;;;6.75;4.38;;;;;;;;;;5045954;28;20201;-71
2023/06/13 02:50:57;;;;;;;6.88;4.15;;;;;;;;;;5048306;28;20647;-71
2023/06/13 02:53:22;;;;;;;6.75;4.55;;;;;;;;;;5051063;28;20716;-71
2023/06/13 02:55:48;;;;;;;4.82;3.70;;;;;;;;;;5040660;28;20205;-71
2023/06/13 02:58:13;;;;;;;4.68;3.40;;;;;;;;;;5039088;28;20625;-71
2023/06/13 03:00:38;;;;;;;5.03;4.00;;;;;;;;;;5040018;28;20204;-71
2023/06/13 03:03:04;;;;;;;7.47;4.43;;;;;;;;;;5050723;28;20177;-71
2023/06/13 03:05:30;;;;;;;4.40;3.78;;;;;;;;;;5045573;28;20194;-71
2023/06/13 03:07:56;;;;;;;7.38;4.28;;;;;;;;;;5046731;28;20166;-71
2023/06/13 03:10:21;;;;;;;8.57;5.03;;;;;;;;;;5048777;28;20462;-71
2023/06/13 03:12:47;;;;;;;5.70;3.95;;;;;;;;;;5044665;28;20175;-71
2023/06/13 03:15:12;;;;;;;4.95;4.10;;;;;;;;;;5045516;28;20268;-70
2023/06/13 03:17:37;;;;;;;6.80;3.92;;;;;;;;;;5046171;28;20213;-70
2023/06/13 03:20:05;;;;;;;7.10;4.55;;;;;;;;;;5042035;28;20170;-71
2023/06/13 03:22:30;;;;;;;7.72;4.35;;;;;;;;;;5045038;28;20251;-70
2023/06/13 03:24:56;;;;;;;7.10;4.13;;;;;;;;;;5048534;28;20240;-70
2023/06/13 03:27:21;;;;;;;8.00;4.68;;;;;;;;;;5048937;28;20554;-70
2023/06/13 03:29:46;;;;;;;5.93;4.97;;;;;;;;;;5046513;28;20193;-71
2023/06/13 03:32:12;;;;;;;4.82;4.15;;;;;;;;;;5049813;28;20681;-71
2023/06/13 03:34:38;;;;;;;5.63;4.38;;;;;;;;;;5047002;28;20213;-70
2023/06/13 03:37:06;;;;;;;5.88;4.00;;;;;;;;;;5050806;28;20185;-70
2023/06/13 03:39:32;;;;;;;8.20;4.57;;;;;;;;;;5043854;28;20343;-71
2023/06/13 03:41:57;;;;;;;8.40;4.50;;;;;;;;;;5048745;28;20659;-70
2023/06/13 03:44:22;;;;;;;7.88;4.05;;;;;;;;;;5052379;28;20205;-70
2023/06/13 03:46:47;;;;;;;5.22;3.80;;;;;;;;;;5047405;28;20505;-70
2023/06/13 03:49:13;;;;;;;6.38;4.32;;;;;;;;;;5051118;28;20193;-71
2023/06/13 03:51:38;;;;;;;5.50;3.97;;;;;;;;;;5058776;28;20260;-70
2023/06/13 03:54:03;;;;;;;6.18;4.22;;;;;;;;;;5047226;28;20185;-71
2023/06/13 03:56:28;;;;;;;7.65;4.45;;;;;;;;;;5050381;28;20188;-70
2023/06/13 03:58:53;;;;;;;8.02;4.57;;;;;;;;;;5044475;28;20197;-71
2023/06/13 04:01:19;;;;;;;6.15;4.43;;;;;;;;;;5046297;28;20260;-71
2023/06/13 04:03:44;;;;;;;5.32;4.18;;;;;;;;;;5053212;28;20785;-70
2023/06/13 04:06:09;;;;;;;6.82;5.10;;;;;;;;;;5054114;28;20197;-71
2023/06/13 04:08:38;;;;;;;4.45;4.05;;;;;;;;;;5049858;28;20234;-71
2023/06/13 04:11:03;;;;;;;6.72;4.30;;;;;;;;;;5056395;28;20181;-70
2023/06/13 04:13:28;;;;;;;7.82;5.03;;;;;;;;;;5056531;28;20177;-71
2023/06/13 04:15:54;;;;;;;6.15;4.68;;;;;;;;;;5055660;28;20224;-71
2023/06/13 04:18:21;;;;;;;9.35;5.30;;;;;;;;;;5055847;28;20664;-71
2023/06/13 04:20:46;;;;;;;8.63;4.60;;;;;;;;;;5046887;28;20177;-71
2023/06/13 04:23:11;;;;;;;7.32;5.25;;;;;;;;;;5042824;28;20174;-71
2023/06/13 04:25:36;;;;;;;8.60;4.28;;;;;;;;;;5042312;28;20204;-71
2023/06/13 04:28:02;;;;;;;7.70;4.45;;;;;;;;;;5053371;28;20182;-71
2023/06/13 04:30:29;;;;;;;6.45;4.78;;;;;;;;;;5049053;28;20193;-72
2023/06/13 04:32:57;;;;;;;8.65;4.78;;;;;;;;;;5041836;28;20702;-75
2023/06/13 04:35:22;;;;;;;6.00;4.55;;;;;;;;;;5044506;28;20274;-71
2023/06/13 04:37:48;;;;;;;5.72;4.47;;;;;;;;;;5041600;28;20689;-71
2023/06/13 04:40:13;;;;;;;9.48;4.53;;;;;;;;;;5043816;28;20271;-71
2023/06/13 04:42:39;;;;;;;5.68;4.65;;;;;;;;;;5048829;28;20261;-71
2023/06/13 04:45:04;;;;;;;7.82;4.60;;;;;;;;;;5050233;28;20551;-71
2023/06/13 04:47:30;;;;;;;8.15;4.65;;;;;;;;;;5044306;28;20182;-71
2023/06/13 04:49:59;;;;;;;8.10;4.57;;;;;;;;;;5056524;28;20177;-71
2023/06/13 04:52:32;;;;;;;5.40;4.57;;;;;;;;;;5049919;28;20559;-71
2023/06/13 04:54:57;;;;;;;6.95;4.53;;;;;;;;;;5051908;28;20194;-71
2023/06/13 04:57:22;;;;;;;5.65;4.47;;;;;;;;;;5050939;28;20197;-71
2023/06/13 04:59:47;;;;;;;5.50;4.40;;;;;;;;;;5055324;28;20178;-71
2023/06/13 05:02:14;;;;;;;5.30;4.40;;;;;;;;;;5043514;28;20178;-71
2023/06/13 05:04:39;;;;;;;10.18;4.93;;;;;;;;;;5052379;28;20239;-71
2023/06/13 05:07:06;;;;;;;7.95;4.75;;;;;;;;;;5044651;28;20674;-71
2023/06/13 05:09:31;;;;;;;6.63;4.50;;;;;;;;;;5041393;28;20700;-71
2023/06/13 05:11:56;;;;;;;7.25;4.55;;;;;;;;;;5048604;28;20261;-71
2023/06/13 05:14:21;;;;;;;6.67;4.70;;;;;;;;;;5038557;28;20210;-71
2023/06/13 05:16:47;;;;;;;4.78;3.63;;;;;;;;;;5050906;28;20422;-72
2023/06/13 05:19:12;;;;;;;7.40;4.82;;;;;;;;;;5051336;28;20510;-74
2023/06/13 05:21:38;;;;;;;5.60;4.80;;;;;;;;;;5051394;28;20193;-71
2023/06/13 05:24:03;;;;;;;7.32;4.95;;;;;;;;;;5050200;28;20195;-71
2023/06/13 05:26:28;;;;;;;7.22;3.88;;;;;;;;;;5050727;28;20178;-71
2023/06/13 05:28:54;;;;;;;7.03;4.20;;;;;;;;;;5049200;28;20182;-71
2023/06/13 05:31:19;;;;;;;5.03;4.25;;;;;;;;;;5047703;28;20190;-71
2023/06/13 05:33:44;;;;;;;7.20;4.80;;;;;;;;;;5051018;28;20197;-71
2023/06/13 05:36:11;;;;;;;9.75;4.47;;;;;;;;;;5051486;28;20189;-71
2023/06/13 05:38:36;;;;;;;7.18;4.60;;;;;;;;;;5051064;28;20233;-71
2023/06/13 05:41:01;;;;;;;6.00;4.68;;;;;;;;;;5051040;28;20208;-71
2023/06/13 05:43:27;;;;;;;6.18;4.63;;;;;;;;;;5051835;28;20216;-71
2023/06/13 05:45:52;;;;;;;7.22;4.25;;;;;;;;;;5043052;28;20224;-71
2023/06/13 05:48:17;;;;;;;7.88;4.65;;;;;;;;;;5049471;28;20237;-71
2023/06/13 05:50:42;;;;;;;7.63;5.28;;;;;;;;;;5048416;28;20192;-71
2023/06/13 05:53:07;;;;;;;7.72;4.35;;;;;;;;;;5048866;28;20170;-72
2023/06/13 05:55:33;;;;;;;5.97;4.30;;;;;;;;;;5049544;28;20197;-72
2023/06/13 05:57:58;;;;;;;5.55;3.83;;;;;;;;;;5046413;28;20198;-72
2023/06/13 06:00:23;;;;;;;7.28;4.30;;;;;;;;;;5040585;28;20254;-72
2023/06/13 06:02:48;;;;;;;6.93;4.35;;;;;;;;;;5048861;28;20264;-77
2023/06/13 06:05:14;;;;;;;6.97;4.60;;;;;;;;;;5044360;28;20205;-77
2023/06/13 06:07:40;;;;;;;5.80;4.30;;;;;;;;;;5042253;28;20209;-78
2023/06/13 06:10:06;;;;;;;9.57;4.68;;;;;;;;;;5031623;28;20684;-78
2023/06/13 06:12:31;;;;;;;5.35;4.25;;;;;;;;;;5042785;28;20742;-77
2023/06/13 06:14:57;;;;;;;6.50;4.10;;;;;;;;;;5089291;22;20363;-71
2023/06/13 06:17:22;;;;;;;7.47;4.32;;;;;;;;;;5048352;28;20288;-73
2023/06/13 06:19:48;;;;;;;5.72;4.35;;;;;;;;;;5045832;28;20539;-71
2023/06/13 06:22:13;;;;;;;5.65;4.50;;;;;;;;;;5065080;28;20210;-72
2023/06/13 06:24:39;;;;;;;4.18;3.75;;;;;;;;;;5045978;28;20709;-72
2023/06/13 06:27:05;;;;;;;9.52;4.32;;;;;;;;;;5050402;28;20229;-72
2023/06/13 06:29:31;;;;;;;7.22;3.97;;;;;;;;;;5047761;28;20185;-72
2023/06/13 06:31:56;;;;;;;5.47;3.85;;;;;;;;;;5047286;28;20188;-72
2023/06/13 06:34:21;;;;;;;6.20;3.60;;;;;;;;;;5051402;28;20257;-72
2023/06/13 06:36:46;;;;;;;5.55;4.28;;;;;;;;;;5043514;28;20200;-72
2023/06/13 06:39:11;;;;;;;4.90;3.87;;;;;;;;;;5049137;28;20259;-72
2023/06/13 06:41:37;;;;;;;5.00;3.72;;;;;;;;;;5043237;28;20517;-72
2023/06/13 06:44:02;;;;;;;8.23;3.90;;;;;;;;;;5049923;28;20261;-72
2023/06/13 06:46:27;;;;;;;6.72;4.35;;;;;;;;;;5051897;28;20919;-72
2023/06/13 06:48:52;;;;;;;7.55;4.32;;;;;;;;;;5049529;28;20598;-73
2023/06/13 06:51:17;;;;;;;7.82;4.47;;;;;;;;;;5050482;28;20711;-73
2023/06/13 06:53:44;;;;;;;5.65;4.57;;;;;;;;;;5049383;28;20209;-71
2023/06/13 06:56:09;;;;;;;4.50;3.70;;;;;;;;;;5051105;28;20186;-72
2023/06/13 06:58:34;;;;;;;4.90;3.93;;;;;;;;;;5050258;28;20714;-73
2023/06/13 07:01:00;;;;;;;7.10;4.40;;;;;;;;;;5044508;28;20429;-73
2023/06/13 07:03:25;;;;;;;6.32;3.85;;;;;;;;;;5046338;28;20205;-73
2023/06/13 07:05:50;;;;;;;7.78;3.78;;;;;;;;;;5049580;28;20339;-73
2023/06/13 07:08:15;;;;;;;4.87;3.40;;;;;;;;;;5055907;28;20200;-72
2023/06/13 07:10:41;;;;;;;10.73;3.80;;;;;;;;;;5053372;28;20422;-73
2023/06/13 07:13:06;;;;;;;5.03;3.90;;;;;;;;;;5053753;28;20418;-72
2023/06/13 07:15:31;;;;;;;5.20;3.58;;;;;;;;;;5054786;28;20760;-72
2023/06/13 07:17:56;;;;;;;5.72;4.15;;;;;;;;;;5051606;28;20624;-72
2023/06/13 07:20:22;;;;;;;5.07;3.97;;;;;;;;;;5053837;28;20181;-72
2023/06/13 07:22:47;;;;;;;4.57;4.03;;;;;;;;;;5054764;28;20259;-73
2023/06/13 07:25:12;;;;;;;4.50;3.80;;;;;;;;;;5055281;28;20205;-73
2023/06/13 07:27:37;;;;;;;4.35;3.88;;;;;;;;;;5051749;28;20189;-72
2023/06/13 07:30:03;;;;;;;5.20;4.23;;;;;;;;;;5054188;28;20261;-72
2023/06/13 07:32:28;;;;;;;12.30;5.00;;;;;;;;;;5051338;28;20461;-72
2023/06/13 07:34:53;;;;;;;5.15;3.78;;;;;;;;;;5055650;28;20291;-72
2023/06/13 07:37:19;;;;;;;4.80;3.67;;;;;;;;;;5057830;28;20197;-72
2023/06/13 07:39:44;;;;;;;5.63;3.63;;;;;;;;;;5052187;28;20174;-72
2023/06/13 07:42:10;;;;;;;5.65;4.20;;;;;;;;;;5050744;28;20197;-72
2023/06/13 07:44:35;;;;;;;10.02;4.10;;;;;;;;;;5051411;28;20228;-72
2023/06/13 07:47:00;;;;;;;6.30;3.42;;;;;;;;;;5049236;28;20197;-72
2023/06/13 07:49:26;;;;;;;5.90;3.53;;;;;;;;;;5052657;28;20260;-72
2023/06/13 07:51:51;;;;;;;5.47;3.63;;;;;;;;;;5052386;28;20220;-72
2023/06/13 07:54:16;;;;;;;6.28;3.88;;;;;;;;;;5052366;28;20207;-72
2023/06/13 07:56:41;;;;;;;6.28;3.72;;;;;;;;;;5049057;28;20181;-72
2023/06/13 07:59:06;;;;;;;8.38;3.95;;;;;;;;;;5031277;28;20701;-72
2023/06/13 08:01:32;;;;;;;5.78;4.30;;;;;;;;;;5050869;28;20673;-72
2023/06/13 08:03:57;;;;;;;5.63;4.10;;;;;;;;;;5052453;28;20170;-72
2023/06/13 08:06:22;;;;;;;4.20;3.77;;;;;;;;;;5054740;28;20205;-72
2023/06/13 08:08:47;;;;;;;8.27;4.53;;;;;;;;;;5050991;28;20434;-72
2023/06/13 08:11:12;;;;;;;5.20;3.70;;;;;;;;;;5051547;28;20196;-71
2023/06/13 08:13:38;;;;;;;8.33;4.17;;;;;;;;;;5051032;28;20418;-71
2023/06/13 08:16:03;;;;;;;7.27;3.70;;;;;;;;;;5052928;28;20524;-72
2023/06/13 08:18:30;;;;;;;6.60;3.63;;;;;;;;;;5053514;28;20856;-71
2023/06/13 08:20:55;;;;;;;5.30;3.65;;;;;;;;;;5051098;28;20182;-71
2023/06/13 08:23:20;;;;;;;5.90;3.97;;;;;;;;;;5047292;28;20201;-72
2023/06/13 08:25:46;;;;;;;5.63;3.43;;;;;;;;;;5052356;28;20216;-72
2023/06/13 08:28:13;;;;;;;6.38;3.60;;;;;;;;;;5052452;28;20908;-72
2023/06/13 08:30:38;;;;;;;3.78;3.38;;;;;;;;;;5049931;28;20185;-72
2023/06/13 08:33:04;;;;;;;6.13;3.90;;;;;;;;;;5052993;28;20177;-72
2023/06/13 08:35:30;;;;;;;10.38;3.83;;;;;;;;;;5055480;28;20613;-73
2023/06/13 08:37:55;;;;;;;5.63;3.10;;;;;;;;;;5050118;28;20400;-73
2023/06/13 08:40:20;;;;;;;6.40;4.25;;;;;;;;;;5054088;28;20682;-72
2023/06/13 08:42:46;;;;;;;14.40;4.10;;;;;;;;;;5053168;28;20182;-72
2023/06/13 08:45:11;;;;;;;11.27;3.60;;;;;;;;;;5050601;28;20194;-72
2023/06/13 08:47:38;;;;;;;5.60;3.97;;;;;;;;;;5053875;28;20632;-72
2023/06/13 08:50:03;;;;;;;7.75;3.70;;;;;;;;;;5052022;28;20178;-71
2023/06/13 08:52:32;;;;;;;4.57;3.10;;;;;;;;;;5048560;28;20701;-73
2023/06/13 08:54:58;;;;;;;5.20;3.63;;;;;;;;;;5052996;28;20198;-71
2023/06/13 08:57:27;;;;;;;5.57;3.28;;;;;;;;;;5052973;28;20229;-73
2023/06/13 08:59:52;;;;;;;7.30;3.40;;;;;;;;;;5046749;28;20174;-72
2023/06/13 09:02:20;;;;;;;5.88;3.70;;;;;;;;;;5044363;28;20621;-72
2023/06/13 09:04:47;;;;;;;4.75;3.67;;;;;;;;;;5048591;28;20190;-72
2023/06/13 09:07:12;;;;;;;5.65;3.28;;;;;;;;;;5052405;28;20178;-72
2023/06/13 09:09:38;;;;;;;6.18;3.50;;;;;;;;;;5050435;28;20184;-72
2023/06/13 09:12:06;;;;;;;8.52;3.47;;;;;;;;;;5051941;28;20231;-72
2023/06/13 09:14:31;;;;;;;4.63;3.38;;;;;;;;;;5045695;28;20193;-72
2023/06/13 09:16:56;;;;;;;4.55;3.03;;;;;;;;;;5050911;28;20192;-71
2023/06/13 09:19:22;;;;;;;5.43;3.28;;;;;;;;;;5051967;28;20231;-71
2023/06/13 09:21:47;;;;;;;5.28;3.45;;;;;;;;;;5047790;28;20184;-71
2023/06/13 09:24:12;;;;;;;5.15;3.80;;;;;;;;;;5053322;28;20189;-72
2023/06/13 09:26:41;;;;;;;6.35;3.60;;;;;;;;;;5051349;28;20264;-71
2023/06/13 09:29:07;;;;;;;4.80;3.08;;;;;;;;;;5049610;28;20603;-71
2023/06/13 09:31:35;;;;;;;6.95;3.50;;;;;;;;;;5048686;28;20173;-72
2023/06/13 09:34:01;;;;;;;8.27;3.70;;;;;;;;;;5053052;28;20213;-72
2023/06/13 09:36:27;;;;;;;3.50;3.20;;;;;;;;;;5056603;28;20232;-72
2023/06/13 09:38:54;;;;;;;5.68;3.63;;;;;;;;;;5051469;28;20219;-73
2023/06/13 09:41:19;;;;;;;6.93;3.70;;;;;;;;;;5051547;28;20667;-72
2023/06/13 09:43:45;;;;;;;4.82;3.45;;;;;;;;;;5047869;28;20269;-72
2023/06/13 09:46:10;;;;;;;4.80;3.83;;;;;;;;;;5050424;28;20233;-72
2023/06/13 09:48:36;;;;;;;4.25;3.85;;;;;;;;;;5051972;28;20170;-73
2023/06/13 09:51:02;;;;;;;5.10;3.03;;;;;;;;;;5048407;28;20272;-72
2023/06/13 09:53:29;;;;;;;5.82;3.40;;;;;;;;;;5054432;28;20403;-72
2023/06/13 09:55:54;;;;;;;6.05;3.50;;;;;;;;;;5051599;28;20212;-72
2023/06/13 09:58:20;;;;;;;3.93;3.27;;;;;;;;;;5048893;28;20236;-73
2023/06/13 10:00:48;;;;;;;6.25;3.33;;;;;;;;;;5046996;28;20426;-72
2023/06/13 10:03:16;;;;;;;5.30;3.78;;;;;;;;;;5049623;28;20246;-72
2023/06/13 10:05:42;;;;;;;4.57;3.88;;;;;;;;;;5051573;28;20189;-73
2023/06/13 10:08:08;;;;;;;5.43;3.40;;;;;;;;;;5052308;28;20177;-72
2023/06/13 10:10:33;;;;;;;4.67;3.23;;;;;;;;;;5051098;28;20190;-73
2023/06/13 10:12:59;;;;;;;5.37;3.10;;;;;;;;;;5050016;28;20422;-73
2023/06/13 10:15:33;;;;;;;6.72;3.35;;;;;;;;;;5051598;28;20587;-72
2023/06/13 10:18:00;;;;;;;7.28;3.72;;;;;;;;;;5052339;28;20192;-73
2023/06/13 10:20:28;;;;;;;6.57;3.97;;;;;;;;;;5046121;28;20173;-72
2023/06/13 10:22:53;;;;;;;6.25;3.90;;;;;;;;;;5050212;28;20721;-73
2023/06/13 10:25:20;;;;;;;4.07;3.15;;;;;;;;;;5051112;28;20201;-72
2023/06/13 10:27:47;;;;;;;6.28;4.15;;;;;;;;;;5051963;28;20181;-72
2023/06/13 10:30:18;;;;;;;4.95;3.55;;;;;;;;;;5049430;28;20173;-72
2023/06/13 10:33:02;;;;;;;5.90;3.25;;;;;;;;;;5053091;28;20235;-72
2023/06/13 10:35:50;;;;;;;6.10;2.90;;;;;;;;;;5047025;28;20205;-74
2023/06/13 10:38:45;;;;;;;6.43;3.67;;;;;;;;;;5041148;28;20213;-73
2023/06/13 10:41:10;;;;;;;3.75;3.35;;;;;;;;;;5052450;28;20169;-72
2023/06/13 10:43:40;;;;;;;5.93;3.43;;;;;;;;;;5056941;28;20235;-74
2023/06/13 10:46:06;;;;;;;4.90;3.50;;;;;;;;;;5054069;28;20197;-74
2023/06/13 10:48:36;;;;;;;6.95;2.90;;;;;;;;;;5056111;28;20184;-75
2023/06/13 10:51:01;;;;;;;4.10;3.70;;;;;;;;;;5052564;28;20554;-74
2023/06/13 10:53:27;;;;;;;7.43;3.20;;;;;;;;;;5054191;28;20173;-75
2023/06/13 10:55:58;;;;;;;3.55;3.10;;;;;;;;;;5053960;28;20289;-75
2023/06/13 10:58:25;;;;;;;6.10;3.65;;;;;;;;;;5054923;28;20356;-75
2023/06/13 11:00:50;;;;;;;5.22;3.70;;;;;;;;;;5055805;28;20177;-75
2023/06/13 11:03:15;;;;;;;4.43;3.53;;;;;;;;;;5055829;28;20169;-75
2023/06/13 11:05:44;;;;;;;4.40;3.23;;;;;;;;;;5052893;28;20418;-74
2023/06/13 11:08:13;;;;;;;4.05;3.22;;;;;;;;;;5065029;28;20426;-75
2023/06/13 11:10:38;;;;;;;5.50;3.83;;;;;;;;;;5053191;28;20177;-75
2023/06/13 11:13:04;;;;;;;4.00;3.10;;;;;;;;;;5050558;28;20650;-75
2023/06/13 11:15:29;;;;;;;4.88;3.47;;;;;;;;;;5052363;28;20971;-75
2023/06/13 11:18:20;;;;;;;4.80;2.78;;;;;;;;;;5065273;28;20209;-75
2023/06/13 11:20:46;;;;;;;5.53;2.97;;;;;;;;;;5052044;28;20668;-75
2023/06/13 11:23:12;;;;;;;3.67;3.08;;;;;;;;;;5050855;28;20268;-75
2023/06/13 11:25:38;;;;;;;4.28;3.20;;;;;;;;;;5049285;28;20215;-75
2023/06/13 11:28:04;;;;;;;5.03;3.67;;;;;;;;;;5051833;28;20272;-75
2023/06/13 11:30:30;;;;;;;5.72;3.10;;;;;;;;;;5054482;28;20193;-74
2023/06/13 11:32:55;;;;;;;3.97;3.40;;;;;;;;;;5052217;28;20638;-75
2023/06/13 11:35:23;;;;;;;3.45;3.10;;;;;;;;;;5056201;28;20204;-75
2023/06/13 11:37:56;;;;;;;6.55;3.75;;;;;;;;;;5052800;28;20212;-75
2023/06/13 11:40:22;;;;;;;4.45;3.05;;;;;;;;;;5051100;28;20181;-75
2023/06/13 11:42:51;;;;;;;4.35;3.65;;;;;;;;;;5048354;28;20571;-75
2023/06/13 11:45:16;;;;;;;6.75;3.22;;;;;;;;;;5053375;28;20204;-76
2023/06/13 11:47:43;;;;;;;3.43;2.93;;;;;;;;;;5055495;28;20567;-75
2023/06/13 11:50:09;;;;;;;4.00;3.30;;;;;;;;;;5052148;28;20440;-75
2023/06/13 11:52:34;;;;;;;4.75;3.60;;;;;;;;;;5059263;28;20176;-76
2023/06/13 11:54:59;;;;;;;4.93;2.88;;;;;;;;;;5054864;28;20235;-76
2023/06/13 11:57:43;;;;;;;4.83;3.40;;;;;;;;;;5053966;28;20211;-75
2023/06/13 12:00:09;;;;;;;6.18;3.30;;;;;;;;;;5052326;28;20426;-75
2023/06/13 12:02:34;;;;;;;3.72;3.25;;;;;;;;;;5056470;28;20235;-74
2023/06/13 12:04:59;;;;;;;4.95;3.35;;;;;;;;;;5049409;28;20192;-75
2023/06/13 12:07:26;;;;;;;4.40;3.30;;;;;;;;;;5053882;28;20199;-76
2023/06/13 12:09:51;;;;;;;3.42;3.13;;;;;;;;;;5049876;28;20457;-76
2023/06/13 12:12:17;;;;;;;4.75;4.28;;;;;;;;;;5048569;28;20189;-75
2023/06/13 12:14:42;;;;;;;3.50;3.20;;;;;;;;;;5063809;22;20235;-68
2023/06/13 12:17:09;;;;;;;5.88;3.65;;;;;;;;;;5030379;28;20442;-69
2023/06/13 12:19:35;;;;;;;4.80;3.45;;;;;;;;;;5030417;28;20169;-69
2023/06/13 12:22:01;;;;;;;5.75;3.63;;;;;;;;;;5029491;28;20177;-69
2023/06/13 12:24:26;;;;;;;6.30;3.85;;;;;;;;;;5047526;28;20598;-69
2023/06/13 12:26:52;;;;;;;4.95;3.13;;;;;;;;;;5049972;28;20180;-69
2023/06/13 12:29:23;;;;;;;4.13;3.75;;;;;;;;;;5046272;28;20180;-69
2023/06/13 12:31:48;;;;;;;5.00;3.42;;;;;;;;;;5041780;28;20180;-69
2023/06/13 12:34:19;;;;;;;3.58;3.17;;;;;;;;;;5049628;28;20186;-69
2023/06/13 12:36:45;;;;;;;4.95;3.45;;;;;;;;;;5047366;28;20197;-69
2023/06/13 12:39:14;;;;;;;4.70;3.58;;;;;;;;;;5044286;28;20227;-69
2023/06/13 12:41:49;;;;;;;3.75;3.25;;;;;;;;;;5033732;28;20256;-69
2023/06/13 12:44:15;;;;;;;7.20;4.22;;;;;;;;;;5025719;28;20267;-69
2023/06/13 12:46:41;;;;;;;5.28;3.90;;;;;;;;;;5041094;28;20328;-69
2023/06/13 12:49:09;;;;;;;7.32;3.53;;;;;;;;;;5050546;28;20188;-69
2023/06/13 12:51:40;;;;;;;7.97;3.72;;;;;;;;;;5033478;28;20209;-69
2023/06/13 12:54:12;;;;;;;4.03;3.22;;;;;;;;;;5047000;28;20168;-69
2023/06/13 12:56:41;;;;;;;4.10;3.75;;;;;;;;;;5042634;28;20233;-70
2023/06/13 12:59:07;;;;;;;10.07;4.35;;;;;;;;;;5049734;28;20292;-69
2023/06/13 13:01:32;;;;;;;6.05;3.72;;;;;;;;;;5048472;28;20654;-69
2023/06/13 13:03:58;;;;;;;4.40;4.00;;;;;;;;;;5049898;28;20177;-70
2023/06/13 13:06:26;;;;;;;8.03;4.10;;;;;;;;;;5025687;28;20406;-69
2023/06/13 13:08:51;;;;;;;4.50;3.50;;;;;;;;;;5043293;28;20181;-69
2023/06/13 13:11:16;;;;;;;6.47;3.97;;;;;;;;;;5046884;28;20231;-68
2023/06/13 13:13:41;;;;;;;17.93;4.57;;;;;;;;;;5047688;28;20228;-68
2023/06/13 13:16:06;;;;;;;4.30;3.90;;;;;;;;;;5042873;28;20687;-69
2023/06/13 13:18:31;;;;;;;5.77;3.97;;;;;;;;;;5045770;28;20189;-69
2023/06/13 13:20:57;;;;;;;7.00;4.20;;;;;;;;;;5042729;28;20174;-69
2023/06/13 13:23:22;;;;;;;3.77;3.40;;;;;;;;;;5044904;28;20201;-69
2023/06/13 13:25:47;;;;;;;4.53;4.10;;;;;;;;;;5027691;28;20276;-69
2023/06/13 13:28:12;;;;;;;4.10;3.70;;;;;;;;;;5048256;28;20239;-69
2023/06/13 13:30:37;;;;;;;6.87;3.90;;;;;;;;;;5044427;28;20185;-69
2023/06/13 13:33:03;;;;;;;6.73;4.13;;;;;;;;;;5026106;28;20280;-69
2023/06/13 13:35:28;;;;;;;4.90;4.00;;;;;;;;;;5030398;28;20452;-69
2023/06/13 13:37:53;;;;;;;4.18;3.70;;;;;;;;;;5032460;28;20197;-69
2023/06/13 13:40:18;;;;;;;4.37;3.97;;;;;;;;;;5019681;28;20181;-69
2023/06/13 13:42:44;;;;;;;3.70;3.40;;;;;;;;;;5048850;28;20787;-69
2023/06/13 13:45:09;;;;;;;4.78;4.13;;;;;;;;;;5049755;28;20623;-69
2023/06/13 13:47:35;;;;;;;3.88;3.42;;;;;;;;;;5043476;28;20169;-69
2023/06/13 13:50:00;;;;;;;3.72;3.30;;;;;;;;;;5047922;28;20185;-68
2023/06/13 13:52:26;;;;;;;5.78;3.70;;;;;;;;;;5041478;28;20177;-69
2023/06/13 13:54:51;;;;;;;5.07;3.78;;;;;;;;;;5051164;28;20185;-69
2023/06/13 13:57:17;;;;;;;6.47;4.25;;;;;;;;;;5045642;28;20176;-69
2023/06/13 13:59:44;;;;;;;9.52;4.00;;;;;;;;;;5047459;28;20189;-69
2023/06/13 14:02:09;;;;;;;5.30;3.97;;;;;;;;;;5047681;28;20270;-69
2023/06/13 14:04:34;;;;;;;5.07;4.13;;;;;;;;;;5026699;28;20264;-68
2023/06/13 14:07:00;;;;;;;5.63;3.80;;;;;;;;;;5044045;28;20272;-69
2023/06/13 14:09:25;;;;;;;4.97;3.83;;;;;;;;;;5043770;28;20187;-68
2023/06/13 14:11:50;;;;;;;5.27;3.53;;;;;;;;;;5048563;28;20662;-68
2023/06/13 14:14:15;;;;;;;5.00;3.38;;;;;;;;;;5049125;28;20181;-68
2023/06/13 14:16:40;;;;;;;5.60;3.80;;;;;;;;;;5048991;28;20270;-68
2023/06/13 14:19:06;;;;;;;7.73;3.73;;;;;;;;;;5044741;28;20205;-68
2023/06/13 14:21:31;;;;;;;5.20;3.97;;;;;;;;;;5047531;28;20430;-68
2023/06/13 14:23:56;;;;;;;8.63;4.00;;;;;;;;;;5051090;28;20173;-69
2023/06/13 14:26:22;;;;;;;4.22;3.83;;;;;;;;;;5029364;28;20212;-68
2023/06/13 14:28:47;;;;;;;5.63;3.88;;;;;;;;;;5032621;28;20646;-69
2023/06/13 14:31:12;;;;;;;6.33;3.90;;;;;;;;;;5047350;28;20472;-69
2023/06/13 14:33:39;;;;;;;5.63;3.80;;;;;;;;;;5049135;28;20426;-69
2023/06/13 14:36:04;;;;;;;6.20;3.72;;;;;;;;;;5042089;28;20582;-69
2023/06/13 14:38:29;;;;;;;5.00;4.38;;;;;;;;;;5020707;28;20197;-69
2023/06/13 14:40:55;;;;;;;5.63;3.80;;;;;;;;;;5041768;28;20236;-69